West Latham, New York
Current Conditions -  °F | °C
As of 5:51 PM on Friday 19 Dec 2014 (Local Time) from KALB Reporting Station
Overcast Overcast  
Wind Chill: 20°   Ceiling: 3400
Heat Index: 29°   Visibility: 10mi
Dew Point: 20°   Wind: 10mph
Humidity: 69%   Direction: 300°WNW
Pressure: 30.14"   Gusts: NA
Location:  42.7511°N, 73.7732°W
Report Text: KALB 192251Z 30009KT 10SM FEW022 OVC034 M02/M07 A3014 RMK AO2 SLP209 T10171067
Loading
Personal Weather Stations






























Interactive Weather Map New forecast layout! Learn more

10-Day Weather Forecast

Advertisements
Track Severe Weather on mobile